createdAt,value
2023-03-01T00:01:20.029Z,21.37
2023-03-01T00:03:48.330Z,22.00
2023-03-01T00:06:15.933Z,24.50
2023-03-01T00:08:43.342Z,22.13
2023-03-01T00:11:19.570Z,22.77
2023-03-01T00:13:48.220Z,27.57
2023-03-01T00:16:21.696Z,21.93
2023-03-01T00:18:49.306Z,24.43
2023-03-01T00:21:16.751Z,22.97
2023-03-01T00:23:44.730Z,22.90
2023-03-01T00:26:14.879Z,21.43
2023-03-01T00:28:43.556Z,21.83
2023-03-01T00:31:14.176Z,20.10
2023-03-01T00:33:42.055Z,24.77
2023-03-01T00:36:11.592Z,23.53
2023-03-01T00:38:42.956Z,25.90
2023-03-01T00:41:13.204Z,26.03
2023-03-01T00:43:40.925Z,23.97
2023-03-01T00:46:21.321Z,25.77
2023-03-01T00:48:49.076Z,24.40
2023-03-01T00:51:17.617Z,29.63
2023-03-01T00:53:46.113Z,30.07
2023-03-01T00:56:15.587Z,23.23
2023-03-01T00:58:43.407Z,24.70
2023-03-01T01:01:19.991Z,29.90
2023-03-01T01:03:53.265Z,26.03
2023-03-01T01:06:51.896Z,27.97
2023-03-01T01:09:19.715Z,27.70
2023-03-01T01:11:52.328Z,26.27
2023-03-01T01:14:20.582Z,25.43
2023-03-01T01:16:47.958Z,26.60
2023-03-01T01:19:16.472Z,24.10
2023-03-01T01:21:44.260Z,27.47
2023-03-01T01:24:12.269Z,25.30
2023-03-01T01:26:39.621Z,22.43
2023-03-01T01:29:07.544Z,25.10
2023-03-01T01:31:36.467Z,24.73
2023-03-01T01:34:06.356Z,24.83
2023-03-01T01:36:35.385Z,25.07
2023-03-01T01:39:02.768Z,22.03
2023-03-01T01:41:30.399Z,23.57
2023-03-01T01:44:18.472Z,24.27
2023-03-01T01:46:50.610Z,23.53
2023-03-01T01:49:27.857Z,24.83
2023-03-01T01:52:21.734Z,23.67
2023-03-01T01:54:49.062Z,21.97
2023-03-01T01:57:22.956Z,25.43
2023-03-01T01:59:55.730Z,24.87
2023-03-01T02:02:23.599Z,23.47
2023-03-01T02:04:56.623Z,24.00
2023-03-01T02:07:25.695Z,26.20
2023-03-01T02:09:53.873Z,25.70
2023-03-01T02:12:25.174Z,25.50
2023-03-01T02:14:52.613Z,26.43
2023-03-01T02:17:20.800Z,22.10
2023-03-01T02:20:15.597Z,27.47
2023-03-01T02:22:45.909Z,26.47
2023-03-01T02:25:24.985Z,24.60
2023-03-01T02:28:11.987Z,22.33
2023-03-01T02:30:59.489Z,25.87
2023-03-01T02:33:27.958Z,29.80
2023-03-01T02:35:56.819Z,24.47
2023-03-01T02:38:25.015Z,22.73
2023-03-01T02:40:53.156Z,23.13
2023-03-01T02:43:24.940Z,26.17
2023-03-01T02:45:54.085Z,21.20
2023-03-01T02:48:21.828Z,23.47
2023-03-01T02:51:11.149Z,22.20
2023-03-01T02:54:13.114Z,23.57
2023-03-01T02:56:41.663Z,23.97
2023-03-01T02:59:10.224Z,25.30
2023-03-01T03:01:37.790Z,22.87
2023-03-01T03:04:17.974Z,23.90
2023-03-01T03:06:50.113Z,24.20
2023-03-01T03:09:19.790Z,25.93
2023-03-01T03:11:47.909Z,21.97
2023-03-01T03:14:17.469Z,25.93
2023-03-01T03:16:49.867Z,21.73
2023-03-01T03:19:19.636Z,23.57
2023-03-01T03:21:47.633Z,25.80
2023-03-01T03:24:14.961Z,25.57
2023-03-01T03:26:42.422Z,25.23
2023-03-01T03:29:09.744Z,23.47
2023-03-01T03:31:37.155Z,27.23
2023-03-01T03:34:04.695Z,25.90
2023-03-01T03:36:32.104Z,27.40
2023-03-01T03:38:59.460Z,43.83
2023-03-01T03:41:26.783Z,99.37
2023-03-01T03:43:54.196Z,85.27
2023-03-01T03:46:21.595Z,70.20
2023-03-01T03:48:50.721Z,83.93
2023-03-01T03:51:19.258Z,43.30
2023-03-01T03:53:47.247Z,45.50
2023-03-01T03:56:14.609Z,47.37
2023-03-01T03:58:41.982Z,33.47
2023-03-01T04:01:09.380Z,37.40
2023-03-01T04:03:36.699Z,30.63
2023-03-01T04:06:05.241Z,30.60
2023-03-01T04:08:32.872Z,30.67
2023-03-01T04:11:24.942Z,30.20
2023-03-01T04:13:54.283Z,31.07
2023-03-01T04:16:21.622Z,31.70
2023-03-01T04:18:49.245Z,34.13
2023-03-01T04:21:16.880Z,30.83
2023-03-01T04:23:44.262Z,31.73
2023-03-01T04:26:11.706Z,34.30
2023-03-01T04:28:44.017Z,33.70
2023-03-01T04:31:18.625Z,38.83
2023-03-01T04:33:56.474Z,42.03
2023-03-01T04:36:26.384Z,37.33
2023-03-01T04:38:54.466Z,33.87
2023-03-01T04:41:24.299Z,34.63
2023-03-01T04:43:51.941Z,38.50
2023-03-01T04:46:21.301Z,40.33
2023-03-01T04:48:48.878Z,34.17
2023-03-01T04:51:16.778Z,31.60
2023-03-01T04:53:45.311Z,33.20
2023-03-01T04:56:14.745Z,33.27
2023-03-01T04:58:42.530Z,35.93
2023-03-01T05:01:18.118Z,34.13
2023-03-01T05:03:47.351Z,46.43
2023-03-01T05:06:15.509Z,34.17
2023-03-01T05:08:43.798Z,38.03
2023-03-01T05:11:11.440Z,38.17
2023-03-01T05:13:40.158Z,34.67
2023-03-01T05:16:12.132Z,38.93
2023-03-01T05:18:41.053Z,37.73
2023-03-01T05:21:12.069Z,34.13
2023-03-01T05:23:39.681Z,38.00
2023-03-01T05:26:16.268Z,39.00
2023-03-01T05:28:49.701Z,34.87
2023-03-01T05:31:17.037Z,40.03
2023-03-01T05:33:44.666Z,38.73
2023-03-01T05:36:12.613Z,35.10
2023-03-01T05:38:40.002Z,33.47
2023-03-01T05:41:15.874Z,37.90
2023-03-01T05:43:46.027Z,36.73
2023-03-01T05:46:14.608Z,40.90
2023-03-01T05:48:42.172Z,38.30
2023-03-01T05:51:09.429Z,38.43
2023-03-01T05:53:36.718Z,39.57
2023-03-01T05:56:05.502Z,37.17
2023-03-01T05:58:33.124Z,37.13
2023-03-01T06:01:00.428Z,38.60
2023-03-01T06:03:27.728Z,41.47
2023-03-01T06:05:59.303Z,35.63
2023-03-01T06:08:28.190Z,39.83
2023-03-01T06:10:55.753Z,37.53
2023-03-01T06:13:24.505Z,38.23
2023-03-01T06:15:52.858Z,37.93
2023-03-01T06:18:20.497Z,35.90
2023-03-01T06:20:57.185Z,35.07
2023-03-01T06:23:25.660Z,38.93
2023-03-01T06:25:54.029Z,38.90
2023-03-01T06:28:22.552Z,36.20
2023-03-01T06:30:51.190Z,34.87
2023-03-01T06:33:20.996Z,38.17
2023-03-01T06:35:48.611Z,39.50
2023-03-01T06:38:15.996Z,37.10
2023-03-01T06:40:43.575Z,38.80
2023-03-01T06:43:11.246Z,42.13
2023-03-01T06:45:38.765Z,40.00
2023-03-01T06:48:07.444Z,43.60
2023-03-01T06:50:36.011Z,39.37
2023-03-01T06:53:04.236Z,38.00
2023-03-01T06:55:32.159Z,40.10
2023-03-01T06:58:00.390Z,39.60
2023-03-01T07:00:28.269Z,41.90
2023-03-01T07:02:56.027Z,38.80
2023-03-01T07:05:23.300Z,41.60
2023-03-01T07:07:50.576Z,98.67
2023-03-01T07:10:17.853Z,59.80
2023-03-01T07:12:45.241Z,46.47
2023-03-01T07:15:12.712Z,41.47
2023-03-01T07:17:39.958Z,39.30
2023-03-01T07:20:07.663Z,37.03
2023-03-01T07:22:34.919Z,39.83
2023-03-01T07:25:02.157Z,38.17
2023-03-01T07:27:29.378Z,38.83
2023-03-01T07:29:57.005Z,38.53
2023-03-01T07:32:24.354Z,43.83
2023-03-01T07:34:53.013Z,41.57
2023-03-01T07:37:20.476Z,38.77
2023-03-01T07:39:47.808Z,41.37
2023-03-01T07:42:15.242Z,38.40
2023-03-01T07:44:42.567Z,37.67
2023-03-01T07:47:10.198Z,42.10
2023-03-01T07:49:37.455Z,38.93
2023-03-01T07:52:04.971Z,36.70
2023-03-01T07:54:32.296Z,39.63
2023-03-01T07:56:59.544Z,39.70
2023-03-01T07:59:30.060Z,39.03
2023-03-01T08:01:58.197Z,38.03
2023-03-01T08:04:28.497Z,36.77
2023-03-01T08:06:56.488Z,39.00
2023-03-01T08:09:23.898Z,39.80
2023-03-01T08:11:51.373Z,35.07
2023-03-01T08:14:18.787Z,38.20
2023-03-01T08:16:46.141Z,38.57
2023-03-01T08:19:13.732Z,38.87
2023-03-01T08:21:41.933Z,34.93
2023-03-01T08:24:11.333Z,37.27
2023-03-01T08:26:38.670Z,39.47
2023-03-01T08:29:06.170Z,38.03
2023-03-01T08:31:38.850Z,33.77
2023-03-01T08:34:09.526Z,39.53
2023-03-01T08:36:40.148Z,36.60
2023-03-01T08:39:10.582Z,34.03
2023-03-01T08:41:37.874Z,40.80
2023-03-01T08:44:05.522Z,42.80
2023-03-01T08:46:38.793Z,39.10
2023-03-01T08:49:08.036Z,42.80
2023-03-01T08:51:37.772Z,43.87
2023-03-01T08:54:06.579Z,49.87
2023-03-01T08:56:34.671Z,45.77
2023-03-01T08:59:01.993Z,40.57
2023-03-01T09:01:29.279Z,39.23
2023-03-01T09:03:56.587Z,38.53
2023-03-01T09:06:24.068Z,42.63
2023-03-01T09:08:52.086Z,37.93
2023-03-01T09:11:22.512Z,39.57
2023-03-01T09:13:50.381Z,35.67
2023-03-01T09:16:20.258Z,37.13
2023-03-01T09:18:54.362Z,36.77
2023-03-01T09:21:37.614Z,36.03
2023-03-01T09:24:07.319Z,34.70
2023-03-01T09:26:34.715Z,31.33
2023-03-01T09:29:01.991Z,31.40
2023-03-01T09:31:29.397Z,30.60
2023-03-01T09:33:56.629Z,29.53
2023-03-01T09:36:26.459Z,31.90
2023-03-01T09:38:54.261Z,27.53
2023-03-01T09:41:39.732Z,30.70
2023-03-01T09:44:09.968Z,32.43
2023-03-01T09:46:43.261Z,31.87
2023-03-01T09:49:20.185Z,30.30
2023-03-01T09:51:58.796Z,28.53
2023-03-01T09:54:26.195Z,27.27
2023-03-01T09:57:11.594Z,30.30
2023-03-01T10:00:24.427Z,33.70
2023-03-01T10:03:18.790Z,29.27
2023-03-01T10:05:52.044Z,32.13
2023-03-01T10:08:32.010Z,26.20
2023-03-01T10:10:59.787Z,27.23
2023-03-01T10:13:31.195Z,25.93
2023-03-01T10:16:16.403Z,27.20
2023-03-01T10:18:47.317Z,27.50
2023-03-01T10:21:18.223Z,30.70
2023-03-01T10:23:46.706Z,31.07
2023-03-01T10:26:48.060Z,24.40
2023-03-01T10:29:15.849Z,27.93
2023-03-01T10:31:49.516Z,29.00
2023-03-01T10:34:32.598Z,24.43
2023-03-01T10:37:10.839Z,25.83
2023-03-01T10:39:38.196Z,23.27
2023-03-01T10:42:20.735Z,22.97
2023-03-01T10:44:49.564Z,24.93
2023-03-01T10:47:23.250Z,25.27
2023-03-01T10:50:23.855Z,24.33
2023-03-01T10:53:03.693Z,21.43
2023-03-01T10:55:40.463Z,27.37
2023-03-01T10:58:28.604Z,23.30
2023-03-01T11:01:01.385Z,20.97
2023-03-01T11:03:34.842Z,18.37
2023-03-01T11:06:04.916Z,19.00
2023-03-01T11:08:40.173Z,18.80
2023-03-01T11:11:10.814Z,19.70
2023-03-01T11:13:51.615Z,19.57
2023-03-01T11:16:32.642Z,20.30
2023-03-01T11:19:22.280Z,19.77
2023-03-01T11:22:14.360Z,20.37
2023-03-01T11:24:43.679Z,17.80
2023-03-01T11:27:17.449Z,18.37
2023-03-01T11:29:57.637Z,19.37
2023-03-01T11:32:29.053Z,23.53
2023-03-01T11:35:15.782Z,22.57
2023-03-01T11:38:20.950Z,20.27
2023-03-01T11:41:00.910Z,19.23
2023-03-01T11:43:47.696Z,20.77
2023-03-01T11:46:33.517Z,19.80
2023-03-01T11:49:29.879Z,19.50
2023-03-01T11:52:20.542Z,21.77
2023-03-01T11:54:47.770Z,18.90
2023-03-01T11:57:41.094Z,17.10
2023-03-01T12:00:40.952Z,17.53
2023-03-01T12:03:36.012Z,17.77
2023-03-01T12:06:15.227Z,16.77
2023-03-01T12:08:50.501Z,17.77
2023-03-01T12:11:55.986Z,17.37
2023-03-01T12:14:50.489Z,17.67
2023-03-01T12:17:33.085Z,21.00
2023-03-01T12:20:22.954Z,23.07
2023-03-01T12:23:20.330Z,19.13
2023-03-01T12:26:07.790Z,21.97
2023-03-01T12:28:44.136Z,16.40
2023-03-01T12:31:29.285Z,17.87
2023-03-01T12:34:07.219Z,18.60
2023-03-01T12:37:12.233Z,17.80
2023-03-01T12:39:42.518Z,24.13
2023-03-01T12:42:35.104Z,22.83
2023-03-01T12:45:08.176Z,21.07
2023-03-01T12:47:38.222Z,21.37
2023-03-01T12:50:24.537Z,18.07
2023-03-01T12:52:56.605Z,19.17
2023-03-01T12:55:27.466Z,22.30
2023-03-01T12:58:16.302Z,18.73
2023-03-01T13:01:03.103Z,18.53
2023-03-01T13:04:12.629Z,19.13
2023-03-01T13:06:46.545Z,19.73
2023-03-01T13:09:25.668Z,18.93
2023-03-01T13:11:53.078Z,19.50
2023-03-01T13:14:26.077Z,19.27
2023-03-01T13:16:54.525Z,17.57
2023-03-01T13:19:27.209Z,17.27
2023-03-01T13:21:56.104Z,16.80
2023-03-01T13:24:31.104Z,19.03
2023-03-01T13:27:07.777Z,18.00
2023-03-01T13:29:53.299Z,19.67
2023-03-01T13:32:34.593Z,17.67
2023-03-01T13:35:15.282Z,18.03
2023-03-01T13:37:43.387Z,18.17
2023-03-01T13:40:31.089Z,17.47
2023-03-01T13:43:18.918Z,15.40
2023-03-01T13:45:47.508Z,17.97
2023-03-01T13:48:22.578Z,17.43
2023-03-01T13:51:01.681Z,17.03
2023-03-01T13:53:34.350Z,18.87
2023-03-01T13:56:08.127Z,17.77
2023-03-01T13:58:51.485Z,17.13
2023-03-01T14:01:30.625Z,17.03
2023-03-01T14:03:58.827Z,18.67
2023-03-01T14:06:32.628Z,16.33
2023-03-01T14:09:28.329Z,23.03
2023-03-01T14:12:14.041Z,16.57
2023-03-01T14:14:45.026Z,19.43
2023-03-01T14:17:26.321Z,17.57
2023-03-01T14:20:05.222Z,17.67
2023-03-01T14:22:36.590Z,17.53
2023-03-01T14:25:22.816Z,17.43
2023-03-01T14:28:15.487Z,20.20
2023-03-01T14:30:44.426Z,22.97
2023-03-01T14:33:30.216Z,17.47
2023-03-01T14:36:08.110Z,17.97
2023-03-01T14:38:40.989Z,22.90
2023-03-01T14:41:20.902Z,19.30
2023-03-01T14:43:52.656Z,23.37
2023-03-01T14:46:37.622Z,23.97
2023-03-01T14:49:21.858Z,21.03
2023-03-01T14:52:05.410Z,23.50
2023-03-01T14:54:43.126Z,22.90
2023-03-01T14:57:26.450Z,26.70
2023-03-01T15:00:07.144Z,22.63
2023-03-01T15:02:36.250Z,22.97
2023-03-01T15:05:08.631Z,20.60
2023-03-01T15:07:42.560Z,22.97
2023-03-01T15:10:21.537Z,21.33
2023-03-01T15:12:49.046Z,22.47
2023-03-01T15:15:39.054Z,23.00
2023-03-01T15:18:20.170Z,25.10
2023-03-01T15:20:49.496Z,20.73
2023-03-01T15:23:27.218Z,22.17
2023-03-01T15:25:57.476Z,23.50
2023-03-01T15:28:34.692Z,22.57
2023-03-01T15:31:13.526Z,24.00
2023-03-01T15:33:48.419Z,24.07
2023-03-01T15:36:45.301Z,27.10
2023-03-01T15:39:39.019Z,31.33
2023-03-01T15:42:35.472Z,28.60
2023-03-01T15:45:24.490Z,28.07
2023-03-01T15:48:03.163Z,34.07
2023-03-01T15:50:34.283Z,28.13
2023-03-01T15:53:05.598Z,26.83
2023-03-01T15:55:34.345Z,23.07
2023-03-01T15:58:10.740Z,22.83
2023-03-01T16:00:40.911Z,22.90
2023-03-01T16:03:14.643Z,24.80
2023-03-01T16:05:41.933Z,25.93
2023-03-01T16:08:09.492Z,30.27
2023-03-01T16:10:37.113Z,26.37
2023-03-01T16:13:04.544Z,38.23
2023-03-01T16:15:35.520Z,32.30
2023-03-01T16:18:03.802Z,39.93
2023-03-01T16:20:33.762Z,33.40
2023-03-01T16:23:07.508Z,26.03
2023-03-01T16:25:36.744Z,27.17
2023-03-01T16:28:10.178Z,24.17
2023-03-01T16:30:40.846Z,23.10
2023-03-01T16:33:27.046Z,21.93
2023-03-01T16:35:57.578Z,22.03
2023-03-01T16:38:24.985Z,22.83
2023-03-01T16:40:53.547Z,22.07
2023-03-01T16:43:20.881Z,22.53
2023-03-01T16:45:48.302Z,23.97
2023-03-01T16:48:15.960Z,24.70
2023-03-01T16:50:43.610Z,21.90
2023-03-01T16:53:11.946Z,21.30
2023-03-01T16:55:46.358Z,22.30
2023-03-01T16:58:14.353Z,20.77
2023-03-01T17:00:41.794Z,25.57
2023-03-01T17:03:09.250Z,21.67
2023-03-01T17:05:36.683Z,22.50
2023-03-01T17:08:04.065Z,24.33
2023-03-01T17:10:31.465Z,23.50
2023-03-01T17:12:59.189Z,23.23
2023-03-01T17:15:26.624Z,26.30
2023-03-01T17:17:54.242Z,23.60
2023-03-01T17:20:22.991Z,21.77
2023-03-01T17:22:50.237Z,28.23
2023-03-01T17:25:17.902Z,36.97
2023-03-01T17:27:45.362Z,27.90
2023-03-01T17:30:14.268Z,29.00
2023-03-01T17:32:42.381Z,25.17
2023-03-01T17:35:12.186Z,24.37
2023-03-01T17:37:39.943Z,33.50
2023-03-01T17:40:07.858Z,35.70
2023-03-01T17:42:35.184Z,34.43
2023-03-01T17:45:02.552Z,30.77
2023-03-01T17:47:29.914Z,29.73
2023-03-01T17:49:57.320Z,27.43
2023-03-01T17:52:24.800Z,27.60
2023-03-01T17:54:52.080Z,29.63
2023-03-01T17:57:19.336Z,25.33
2023-03-01T17:59:46.981Z,26.80
2023-03-01T18:02:15.633Z,28.83
2023-03-01T18:04:42.915Z,28.00
2023-03-01T18:07:10.191Z,26.70
2023-03-01T18:09:37.831Z,27.00
2023-03-01T18:12:07.095Z,29.00
2023-03-01T18:14:36.576Z,31.67
2023-03-01T18:17:09.490Z,25.10
2023-03-01T18:19:39.417Z,26.63
2023-03-01T18:22:08.410Z,28.63
2023-03-01T18:24:38.394Z,27.53
2023-03-01T18:27:06.430Z,28.57
2023-03-01T18:29:34.025Z,26.70
2023-03-01T18:32:01.561Z,25.87
2023-03-01T18:34:28.923Z,28.10
2023-03-01T18:37:08.788Z,26.90
2023-03-01T18:39:37.016Z,26.03
2023-03-01T18:42:04.772Z,24.97
2023-03-01T18:44:33.652Z,27.87
2023-03-01T18:47:01.249Z,33.63
2023-03-01T18:49:28.684Z,33.23
2023-03-01T18:51:56.784Z,26.70
2023-03-01T18:54:24.611Z,25.83
2023-03-01T18:56:52.314Z,25.80
2023-03-01T18:59:19.573Z,28.17
2023-03-01T19:01:49.114Z,29.23
2023-03-01T19:04:16.445Z,30.80
2023-03-01T19:06:43.682Z,44.00
2023-03-01T19:09:11.524Z,41.13
2023-03-01T19:11:38.960Z,35.00
2023-03-01T19:14:06.327Z,38.70
2023-03-01T19:16:35.794Z,27.97
2023-03-01T19:19:04.893Z,28.90
2023-03-01T19:21:33.190Z,32.97
2023-03-01T19:24:02.425Z,31.60
2023-03-01T19:26:31.377Z,27.13
2023-03-01T19:28:59.414Z,25.30
2023-03-01T19:31:29.334Z,26.57
2023-03-01T19:34:16.086Z,26.00
2023-03-01T19:36:44.512Z,23.20
2023-03-01T19:39:13.924Z,27.50
2023-03-01T19:41:42.653Z,25.43
2023-03-01T19:44:10.936Z,23.47
2023-03-01T19:46:38.793Z,26.37
2023-03-01T19:49:06.811Z,27.43
2023-03-01T19:51:36.428Z,26.90
2023-03-01T19:54:05.988Z,27.17
2023-03-01T19:56:34.585Z,26.90
2023-03-01T19:59:04.327Z,30.57
2023-03-01T20:01:33.285Z,28.73
2023-03-01T20:04:01.951Z,29.40
2023-03-01T20:06:30.432Z,26.13
2023-03-01T20:09:00.613Z,36.23
2023-03-01T20:11:29.900Z,27.63
2023-03-01T20:13:57.315Z,29.73
2023-03-01T20:16:26.871Z,31.27
2023-03-01T20:18:55.029Z,34.77
2023-03-01T20:21:24.846Z,31.93
2023-03-01T20:23:52.956Z,32.20
2023-03-01T20:26:25.356Z,31.40
2023-03-01T20:28:55.021Z,34.93
2023-03-01T20:31:28.624Z,31.20
2023-03-01T20:33:57.562Z,32.80
2023-03-01T20:36:25.951Z,30.27
2023-03-01T20:38:56.487Z,36.13
2023-03-01T20:41:26.886Z,36.43
2023-03-01T20:43:56.425Z,34.23
2023-03-01T20:46:26.544Z,36.17
2023-03-01T20:48:54.784Z,33.43
2023-03-01T20:51:22.221Z,36.33
2023-03-01T20:53:49.921Z,34.77
2023-03-01T20:56:18.983Z,29.27
2023-03-01T20:59:04.451Z,35.77
2023-03-01T21:01:32.036Z,35.60
2023-03-01T21:03:59.397Z,37.50
2023-03-01T21:06:26.658Z,41.47
2023-03-01T21:08:56.305Z,33.20
2023-03-01T21:11:25.378Z,38.73
2023-03-01T21:13:53.670Z,33.17
2023-03-01T21:16:21.398Z,36.37
2023-03-01T21:18:49.492Z,35.43
2023-03-01T21:21:21.528Z,32.47
2023-03-01T21:23:49.568Z,40.37
2023-03-01T21:26:20.252Z,37.40
2023-03-01T21:28:50.113Z,39.90
2023-03-01T21:31:20.860Z,49.77
2023-03-01T21:33:53.661Z,143.77
2023-03-01T21:36:22.751Z,138.40
2023-03-01T21:38:51.682Z,99.07
2023-03-01T21:41:20.432Z,90.83
2023-03-01T21:43:49.290Z,83.90
2023-03-01T21:46:20.031Z,117.57
2023-03-01T21:48:49.374Z,118.13
2023-03-01T21:51:18.904Z,148.03
2023-03-01T21:53:46.491Z,105.90
2023-03-01T21:56:19.709Z,134.03
2023-03-01T21:58:47.792Z,112.33
2023-03-01T22:01:17.724Z,97.10
2023-03-01T22:03:45.792Z,54.10
2023-03-01T22:06:20.471Z,51.30
2023-03-01T22:08:50.216Z,53.23
2023-03-01T22:11:19.621Z,44.47
2023-03-01T22:13:51.793Z,46.20
2023-03-01T22:16:22.842Z,33.77
2023-03-01T22:18:50.177Z,37.53
2023-03-01T22:21:18.448Z,36.87
2023-03-01T22:23:45.956Z,31.77
2023-03-01T22:26:27.474Z,38.60
2023-03-01T22:28:57.606Z,38.57
2023-03-01T22:31:26.140Z,37.23
2023-03-01T22:33:54.952Z,41.13
2023-03-01T22:36:22.859Z,40.53
2023-03-01T22:38:52.252Z,43.03
2023-03-01T22:41:19.473Z,36.07
2023-03-01T22:43:47.106Z,37.63
2023-03-01T22:46:17.656Z,40.03
2023-03-01T22:48:46.361Z,36.80
2023-03-01T22:51:15.159Z,34.53
2023-03-01T22:53:42.676Z,36.97
2023-03-01T22:56:22.213Z,34.00
2023-03-01T22:58:49.820Z,39.30
2023-03-01T23:01:23.219Z,38.50
2023-03-01T23:03:50.822Z,36.60
2023-03-01T23:06:19.830Z,44.80
2023-03-01T23:08:55.986Z,36.90
2023-03-01T23:11:24.492Z,36.53
2023-03-01T23:13:52.888Z,36.93
2023-03-01T23:16:26.735Z,35.20
2023-03-01T23:18:55.883Z,34.90
2023-03-01T23:21:23.227Z,38.10
2023-03-01T23:23:50.971Z,35.67
2023-03-01T23:26:19.101Z,41.10
2023-03-01T23:28:47.651Z,41.83
2023-03-01T23:31:15.846Z,40.93
2023-03-01T23:33:45.470Z,37.83
2023-03-01T23:36:19.293Z,40.43
2023-03-01T23:38:48.305Z,43.30
2023-03-01T23:41:18.201Z,42.73
2023-03-01T23:43:50.652Z,44.67
2023-03-01T23:46:20.275Z,41.30
2023-03-01T23:48:47.831Z,38.70
2023-03-01T23:51:17.750Z,48.97
2023-03-01T23:53:54.525Z,62.23
2023-03-01T23:56:27.403Z,54.03
2023-03-01T23:58:57.257Z,55.13
